sensor_id;sensor_type;location;lat;lon;timestamp;P1;durP1;ratioP1;P2;durP2;ratioP2
7985;SDS011;4038;42.612;23.066;2023-07-24T00:00:08;30.48;;;28.02;;
7985;SDS011;4038;42.612;23.066;2023-07-24T00:02:34;30.45;;;27.95;;
7985;SDS011;4038;42.612;23.066;2023-07-24T00:04:59;30.42;;;28.10;;
7985;SDS011;4038;42.612;23.066;2023-07-24T00:07:25;30.92;;;28.33;;
7985;SDS011;4038;42.612;23.066;2023-07-24T00:09:50;29.80;;;27.60;;
7985;SDS011;4038;42.612;23.066;2023-07-24T00:12:16;31.13;;;28.63;;
7985;SDS011;4038;42.612;23.066;2023-07-24T00:14:41;31.58;;;28.98;;
7985;SDS011;4038;42.612;23.066;2023-07-24T00:17:06;35.42;;;32.08;;
7985;SDS011;4038;42.612;23.066;2023-07-24T00:19:32;36.50;;;33.13;;
7985;SDS011;4038;42.612;23.066;2023-07-24T00:21:57;36.05;;;32.75;;
7985;SDS011;4038;42.612;23.066;2023-07-24T00:24:23;35.75;;;32.45;;
7985;SDS011;4038;42.612;23.066;2023-07-24T00:26:48;35.33;;;32.08;;
7985;SDS011;4038;42.612;23.066;2023-07-24T00:29:14;33.97;;;30.90;;
7985;SDS011;4038;42.612;23.066;2023-07-24T00:31:39;32.63;;;29.88;;
7985;SDS011;4038;42.612;23.066;2023-07-24T00:34:04;31.05;;;28.45;;
7985;SDS011;4038;42.612;23.066;2023-07-24T00:36:30;30.77;;;28.35;;
7985;SDS011;4038;42.612;23.066;2023-07-24T00:38:55;33.00;;;30.35;;
7985;SDS011;4038;42.612;23.066;2023-07-24T00:41:20;32.20;;;29.58;;
7985;SDS011;4038;42.612;23.066;2023-07-24T00:43:46;31.27;;;28.70;;
7985;SDS011;4038;42.612;23.066;2023-07-24T00:46:11;30.80;;;27.98;;
7985;SDS011;4038;42.612;23.066;2023-07-24T00:48:37;30.40;;;28.00;;
7985;SDS011;4038;42.612;23.066;2023-07-24T00:51:03;30.45;;;27.98;;
7985;SDS011;4038;42.612;23.066;2023-07-24T00:53:30;46.40;;;31.52;;
7985;SDS011;4038;42.612;23.066;2023-07-24T00:55:55;31.42;;;28.42;;
7985;SDS011;4038;42.612;23.066;2023-07-24T00:58:21;31.20;;;28.50;;
7985;SDS011;4038;42.612;23.066;2023-07-24T01:00:47;29.88;;;27.30;;
7985;SDS011;4038;42.612;23.066;2023-07-24T01:03:13;29.58;;;27.27;;
7985;SDS011;4038;42.612;23.066;2023-07-24T01:05:39;29.90;;;27.50;;
7985;SDS011;4038;42.612;23.066;2023-07-24T01:08:06;29.75;;;27.40;;
7985;SDS011;4038;42.612;23.066;2023-07-24T01:10:31;30.27;;;27.88;;
7985;SDS011;4038;42.612;23.066;2023-07-24T01:16:00;29.60;;;27.30;;
7985;SDS011;4038;42.612;23.066;2023-07-24T01:18:31;31.20;;;28.50;;
7985;SDS011;4038;42.612;23.066;2023-07-24T01:20:57;30.20;;;27.70;;
7985;SDS011;4038;42.612;23.066;2023-07-24T01:25:54;31.25;;;28.48;;
7985;SDS011;4038;42.612;23.066;2023-07-24T01:28:21;30.52;;;28.13;;
7985;SDS011;4038;42.612;23.066;2023-07-24T01:30:47;29.67;;;27.38;;
7985;SDS011;4038;42.612;23.066;2023-07-24T01:33:12;32.42;;;29.63;;
7985;SDS011;4038;42.612;23.066;2023-07-24T01:35:39;29.77;;;27.35;;
7985;SDS011;4038;42.612;23.066;2023-07-24T01:38:08;31.48;;;28.85;;
7985;SDS011;4038;42.612;23.066;2023-07-24T01:40:35;121.65;;;46.75;;
7985;SDS011;4038;42.612;23.066;2023-07-24T01:43:01;45.85;;;32.28;;
7985;SDS011;4038;42.612;23.066;2023-07-24T01:45:26;32.28;;;29.33;;
7985;SDS011;4038;42.612;23.066;2023-07-24T01:47:52;30.83;;;28.52;;
7985;SDS011;4038;42.612;23.066;2023-07-24T01:50:17;31.80;;;29.23;;
7985;SDS011;4038;42.612;23.066;2023-07-24T01:52:43;31.98;;;29.35;;
7985;SDS011;4038;42.612;23.066;2023-07-24T01:55:10;36.25;;;29.08;;
7985;SDS011;4038;42.612;23.066;2023-07-24T01:57:35;39.65;;;35.13;;
7985;SDS011;4038;42.612;23.066;2023-07-24T02:00:01;36.30;;;30.75;;
7985;SDS011;4038;42.612;23.066;2023-07-24T02:02:26;32.47;;;29.77;;
7985;SDS011;4038;42.612;23.066;2023-07-24T02:04:52;32.00;;;29.20;;
7985;SDS011;4038;42.612;23.066;2023-07-24T02:07:17;30.38;;;27.85;;
7985;SDS011;4038;42.612;23.066;2023-07-24T02:09:42;31.05;;;28.45;;
7985;SDS011;4038;42.612;23.066;2023-07-24T02:12:08;30.38;;;27.83;;
7985;SDS011;4038;42.612;23.066;2023-07-24T02:14:33;32.45;;;29.55;;
7985;SDS011;4038;42.612;23.066;2023-07-24T02:16:58;30.77;;;28.15;;
7985;SDS011;4038;42.612;23.066;2023-07-24T02:19:24;34.85;;;29.05;;
7985;SDS011;4038;42.612;23.066;2023-07-24T02:21:49;30.58;;;27.30;;
7985;SDS011;4038;42.612;23.066;2023-07-24T02:24:15;29.98;;;27.13;;
7985;SDS011;4038;42.612;23.066;2023-07-24T02:26:40;29.83;;;26.98;;
7985;SDS011;4038;42.612;23.066;2023-07-24T02:29:05;30.75;;;28.20;;
7985;SDS011;4038;42.612;23.066;2023-07-24T02:31:31;30.55;;;27.48;;
7985;SDS011;4038;42.612;23.066;2023-07-24T02:33:56;30.67;;;27.95;;
7985;SDS011;4038;42.612;23.066;2023-07-24T02:36:21;29.92;;;27.27;;
7985;SDS011;4038;42.612;23.066;2023-07-24T02:38:47;30.65;;;28.08;;
7985;SDS011;4038;42.612;23.066;2023-07-24T02:41:12;29.70;;;27.23;;
7985;SDS011;4038;42.612;23.066;2023-07-24T02:43:38;29.98;;;27.63;;
7985;SDS011;4038;42.612;23.066;2023-07-24T02:46:03;32.25;;;29.45;;
7985;SDS011;4038;42.612;23.066;2023-07-24T02:48:28;42.05;;;32.25;;
7985;SDS011;4038;42.612;23.066;2023-07-24T02:50:54;32.70;;;29.50;;
7985;SDS011;4038;42.612;23.066;2023-07-24T02:53:20;32.63;;;29.35;;
7985;SDS011;4038;42.612;23.066;2023-07-24T02:55:45;32.63;;;29.65;;
7985;SDS011;4038;42.612;23.066;2023-07-24T02:58:11;31.95;;;29.10;;
7985;SDS011;4038;42.612;23.066;2023-07-24T03:00:38;31.15;;;28.45;;
7985;SDS011;4038;42.612;23.066;2023-07-24T03:03:03;30.85;;;27.92;;
7985;SDS011;4038;42.612;23.066;2023-07-24T03:05:29;30.38;;;27.75;;
7985;SDS011;4038;42.612;23.066;2023-07-24T03:07:55;30.60;;;27.50;;
7985;SDS011;4038;42.612;23.066;2023-07-24T03:10:22;30.02;;;27.25;;
7985;SDS011;4038;42.612;23.066;2023-07-24T03:12:48;31.23;;;28.38;;
7985;SDS011;4038;42.612;23.066;2023-07-24T03:15:13;30.80;;;28.13;;
7985;SDS011;4038;42.612;23.066;2023-07-24T03:17:39;31.95;;;29.08;;
7985;SDS011;4038;42.612;23.066;2023-07-24T03:20:13;32.53;;;29.63;;
7985;SDS011;4038;42.612;23.066;2023-07-24T03:22:40;31.27;;;28.52;;
7985;SDS011;4038;42.612;23.066;2023-07-24T03:25:06;32.08;;;29.13;;
7985;SDS011;4038;42.612;23.066;2023-07-24T03:27:32;31.45;;;28.85;;
7985;SDS011;4038;42.612;23.066;2023-07-24T03:29:57;31.88;;;29.13;;
7985;SDS011;4038;42.612;23.066;2023-07-24T03:32:23;32.33;;;29.60;;
7985;SDS011;4038;42.612;23.066;2023-07-24T03:34:48;31.65;;;28.65;;
7985;SDS011;4038;42.612;23.066;2023-07-24T03:37:13;31.45;;;28.75;;
7985;SDS011;4038;42.612;23.066;2023-07-24T03:39:39;31.13;;;28.30;;
7985;SDS011;4038;42.612;23.066;2023-07-24T03:42:04;30.92;;;27.98;;
7985;SDS011;4038;42.612;23.066;2023-07-24T03:44:30;32.20;;;28.42;;
7985;SDS011;4038;42.612;23.066;2023-07-24T03:46:55;42.17;;;31.52;;
7985;SDS011;4038;42.612;23.066;2023-07-24T03:49:20;40.97;;;30.98;;
7985;SDS011;4038;42.612;23.066;2023-07-24T03:51:47;40.72;;;31.75;;
7985;SDS011;4038;42.612;23.066;2023-07-24T03:54:13;40.42;;;31.52;;
7985;SDS011;4038;42.612;23.066;2023-07-24T03:56:38;38.92;;;30.90;;
7985;SDS011;4038;42.612;23.066;2023-07-24T03:59:04;40.60;;;30.85;;
7985;SDS011;4038;42.612;23.066;2023-07-24T04:01:31;35.35;;;29.73;;
7985;SDS011;4038;42.612;23.066;2023-07-24T04:03:57;33.95;;;30.00;;
7985;SDS011;4038;42.612;23.066;2023-07-24T04:06:23;32.97;;;29.65;;
7985;SDS011;4038;42.612;23.066;2023-07-24T04:08:49;35.03;;;30.77;;
7985;SDS011;4038;42.612;23.066;2023-07-24T04:11:14;34.28;;;30.05;;
7985;SDS011;4038;42.612;23.066;2023-07-24T04:13:40;35.28;;;29.67;;
7985;SDS011;4038;42.612;23.066;2023-07-24T04:16:05;38.15;;;30.98;;
7985;SDS011;4038;42.612;23.066;2023-07-24T04:18:31;37.10;;;31.65;;
7985;SDS011;4038;42.612;23.066;2023-07-24T04:20:56;34.38;;;30.70;;
7985;SDS011;4038;42.612;23.066;2023-07-24T04:23:21;37.10;;;31.25;;
7985;SDS011;4038;42.612;23.066;2023-07-24T04:25:49;37.70;;;31.38;;
7985;SDS011;4038;42.612;23.066;2023-07-24T04:28:15;40.50;;;30.00;;
7985;SDS011;4038;42.612;23.066;2023-07-24T04:30:40;34.28;;;30.58;;
7985;SDS011;4038;42.612;23.066;2023-07-24T04:33:05;35.80;;;29.70;;
7985;SDS011;4038;42.612;23.066;2023-07-24T04:35:31;32.35;;;29.00;;
7985;SDS011;4038;42.612;23.066;2023-07-24T04:37:56;34.08;;;29.88;;
7985;SDS011;4038;42.612;23.066;2023-07-24T04:40:22;34.92;;;31.15;;
7985;SDS011;4038;42.612;23.066;2023-07-24T04:42:48;36.85;;;31.45;;
7985;SDS011;4038;42.612;23.066;2023-07-24T04:45:13;44.17;;;33.33;;
7985;SDS011;4038;42.612;23.066;2023-07-24T04:47:39;42.25;;;32.47;;
7985;SDS011;4038;42.612;23.066;2023-07-24T04:50:07;36.53;;;32.30;;
7985;SDS011;4038;42.612;23.066;2023-07-24T04:52:33;42.97;;;32.15;;
7985;SDS011;4038;42.612;23.066;2023-07-24T04:54:58;34.80;;;30.98;;
7985;SDS011;4038;42.612;23.066;2023-07-24T04:57:24;39.70;;;31.33;;
7985;SDS011;4038;42.612;23.066;2023-07-24T04:59:49;40.97;;;31.00;;
7985;SDS011;4038;42.612;23.066;2023-07-24T05:02:14;36.72;;;31.58;;
7985;SDS011;4038;42.612;23.066;2023-07-24T05:04:40;39.83;;;30.63;;
7985;SDS011;4038;42.612;23.066;2023-07-24T05:07:06;43.05;;;30.70;;
7985;SDS011;4038;42.612;23.066;2023-07-24T05:09:32;41.35;;;30.90;;
7985;SDS011;4038;42.612;23.066;2023-07-24T05:11:57;50.17;;;31.27;;
7985;SDS011;4038;42.612;23.066;2023-07-24T05:14:22;47.85;;;31.88;;
7985;SDS011;4038;42.612;23.066;2023-07-24T05:16:48;66.22;;;33.65;;
7985;SDS011;4038;42.612;23.066;2023-07-24T05:19:13;48.88;;;31.67;;
7985;SDS011;4038;42.612;23.066;2023-07-24T05:21:38;49.53;;;32.63;;
7985;SDS011;4038;42.612;23.066;2023-07-24T05:24:04;47.72;;;32.40;;
7985;SDS011;4038;42.612;23.066;2023-07-24T05:26:29;43.00;;;32.00;;
7985;SDS011;4038;42.612;23.066;2023-07-24T05:28:55;46.03;;;32.55;;
7985;SDS011;4038;42.612;23.066;2023-07-24T05:31:20;48.55;;;33.95;;
7985;SDS011;4038;42.612;23.066;2023-07-24T05:33:46;45.58;;;32.85;;
7985;SDS011;4038;42.612;23.066;2023-07-24T05:36:11;48.08;;;34.50;;
7985;SDS011;4038;42.612;23.066;2023-07-24T05:38:36;56.67;;;36.28;;
7985;SDS011;4038;42.612;23.066;2023-07-24T05:41:02;51.47;;;34.30;;
7985;SDS011;4038;42.612;23.066;2023-07-24T05:43:29;49.95;;;35.05;;
7985;SDS011;4038;42.612;23.066;2023-07-24T05:45:55;44.72;;;34.05;;
7985;SDS011;4038;42.612;23.066;2023-07-24T05:48:22;52.40;;;35.33;;
7985;SDS011;4038;42.612;23.066;2023-07-24T05:50:47;44.35;;;35.50;;
7985;SDS011;4038;42.612;23.066;2023-07-24T05:53:13;47.40;;;35.00;;
7985;SDS011;4038;42.612;23.066;2023-07-24T05:55:39;49.20;;;34.63;;
7985;SDS011;4038;42.612;23.066;2023-07-24T05:58:05;41.08;;;33.15;;
7985;SDS011;4038;42.612;23.066;2023-07-24T06:00:30;45.67;;;33.42;;
7985;SDS011;4038;42.612;23.066;2023-07-24T06:02:55;45.78;;;34.92;;
7985;SDS011;4038;42.612;23.066;2023-07-24T06:05:21;52.17;;;33.75;;
7985;SDS011;4038;42.612;23.066;2023-07-24T06:07:46;47.33;;;32.83;;
7985;SDS011;4038;42.612;23.066;2023-07-24T06:10:12;48.28;;;32.92;;
7985;SDS011;4038;42.612;23.066;2023-07-24T06:12:38;53.80;;;35.42;;
7985;SDS011;4038;42.612;23.066;2023-07-24T06:15:05;38.17;;;34.08;;
7985;SDS011;4038;42.612;23.066;2023-07-24T06:17:31;38.15;;;32.45;;
7985;SDS011;4038;42.612;23.066;2023-07-24T06:19:57;42.08;;;32.85;;
7985;SDS011;4038;42.612;23.066;2023-07-24T06:22:22;39.67;;;33.10;;
7985;SDS011;4038;42.612;23.066;2023-07-24T06:24:48;43.33;;;33.67;;
7985;SDS011;4038;42.612;23.066;2023-07-24T06:27:14;37.65;;;31.98;;
7985;SDS011;4038;42.612;23.066;2023-07-24T06:29:39;39.45;;;33.10;;
7985;SDS011;4038;42.612;23.066;2023-07-24T06:32:07;44.03;;;32.85;;
7985;SDS011;4038;42.612;23.066;2023-07-24T06:34:33;44.92;;;33.50;;
7985;SDS011;4038;42.612;23.066;2023-07-24T06:36:59;43.70;;;34.25;;
7985;SDS011;4038;42.612;23.066;2023-07-24T06:39:24;47.13;;;33.03;;
7985;SDS011;4038;42.612;23.066;2023-07-24T06:41:53;42.45;;;34.38;;
7985;SDS011;4038;42.612;23.066;2023-07-24T06:44:20;40.38;;;33.67;;
7985;SDS011;4038;42.612;23.066;2023-07-24T06:46:45;49.78;;;33.75;;
7985;SDS011;4038;42.612;23.066;2023-07-24T06:49:11;48.95;;;34.47;;
7985;SDS011;4038;42.612;23.066;2023-07-24T06:51:36;59.63;;;35.60;;
7985;SDS011;4038;42.612;23.066;2023-07-24T06:54:03;47.17;;;35.08;;
7985;SDS011;4038;42.612;23.066;2023-07-24T06:56:28;43.25;;;34.42;;
7985;SDS011;4038;42.612;23.066;2023-07-24T06:58:54;46.42;;;34.75;;
7985;SDS011;4038;42.612;23.066;2023-07-24T07:01:19;47.65;;;34.65;;
7985;SDS011;4038;42.612;23.066;2023-07-24T07:03:45;44.83;;;34.15;;
7985;SDS011;4038;42.612;23.066;2023-07-24T07:06:10;42.85;;;34.38;;
7985;SDS011;4038;42.612;23.066;2023-07-24T07:08:37;49.28;;;35.50;;
7985;SDS011;4038;42.612;23.066;2023-07-24T07:11:02;46.85;;;33.30;;
7985;SDS011;4038;42.612;23.066;2023-07-24T07:13:28;41.05;;;33.85;;
7985;SDS011;4038;42.612;23.066;2023-07-24T07:15:53;37.85;;;32.80;;
7985;SDS011;4038;42.612;23.066;2023-07-24T07:18:19;45.40;;;33.38;;
7985;SDS011;4038;42.612;23.066;2023-07-24T07:20:45;42.95;;;33.25;;
7985;SDS011;4038;42.612;23.066;2023-07-24T07:23:11;36.88;;;32.95;;
7985;SDS011;4038;42.612;23.066;2023-07-24T07:25:37;43.55;;;34.78;;
7985;SDS011;4038;42.612;23.066;2023-07-24T07:28:02;37.85;;;33.47;;
7985;SDS011;4038;42.612;23.066;2023-07-24T07:30:28;44.15;;;33.80;;
7985;SDS011;4038;42.612;23.066;2023-07-24T07:32:53;38.33;;;32.05;;
7985;SDS011;4038;42.612;23.066;2023-07-24T07:35:18;51.80;;;34.20;;
7985;SDS011;4038;42.612;23.066;2023-07-24T07:37:44;52.40;;;34.17;;
7985;SDS011;4038;42.612;23.066;2023-07-24T07:40:09;72.13;;;36.90;;
7985;SDS011;4038;42.612;23.066;2023-07-24T07:42:35;70.47;;;37.72;;
7985;SDS011;4038;42.612;23.066;2023-07-24T07:45:00;77.13;;;38.55;;
7985;SDS011;4038;42.612;23.066;2023-07-24T07:47:26;79.53;;;36.30;;
7985;SDS011;4038;42.612;23.066;2023-07-24T07:49:52;73.88;;;37.25;;
7985;SDS011;4038;42.612;23.066;2023-07-24T07:52:17;63.92;;;37.75;;
7985;SDS011;4038;42.612;23.066;2023-07-24T07:54:46;64.20;;;36.17;;
7985;SDS011;4038;42.612;23.066;2023-07-24T07:57:12;66.15;;;35.10;;
7985;SDS011;4038;42.612;23.066;2023-07-24T07:59:37;46.63;;;33.55;;
7985;SDS011;4038;42.612;23.066;2023-07-24T08:02:03;46.03;;;32.05;;
7985;SDS011;4038;42.612;23.066;2023-07-24T08:04:28;47.20;;;32.42;;
7985;SDS011;4038;42.612;23.066;2023-07-24T08:06:54;44.67;;;33.03;;
7985;SDS011;4038;42.612;23.066;2023-07-24T08:09:19;46.88;;;31.90;;
7985;SDS011;4038;42.612;23.066;2023-07-24T08:11:46;43.65;;;32.83;;
7985;SDS011;4038;42.612;23.066;2023-07-24T08:14:12;52.33;;;32.08;;
7985;SDS011;4038;42.612;23.066;2023-07-24T08:16:37;45.03;;;33.08;;
7985;SDS011;4038;42.612;23.066;2023-07-24T08:19:03;51.83;;;32.88;;
7985;SDS011;4038;42.612;23.066;2023-07-24T08:21:28;47.58;;;32.55;;
7985;SDS011;4038;42.612;23.066;2023-07-24T08:23:54;41.88;;;34.03;;
7985;SDS011;4038;42.612;23.066;2023-07-24T08:26:19;53.92;;;33.78;;
7985;SDS011;4038;42.612;23.066;2023-07-24T08:28:44;49.55;;;34.03;;
7985;SDS011;4038;42.612;23.066;2023-07-24T08:31:10;47.63;;;34.08;;
7985;SDS011;4038;42.612;23.066;2023-07-24T08:33:35;49.47;;;32.97;;
7985;SDS011;4038;42.612;23.066;2023-07-24T08:36:01;43.83;;;34.72;;
7985;SDS011;4038;42.612;23.066;2023-07-24T08:38:28;43.60;;;33.22;;
7985;SDS011;4038;42.612;23.066;2023-07-24T08:41:06;40.95;;;31.63;;
7985;SDS011;4038;42.612;23.066;2023-07-24T08:43:34;45.03;;;33.03;;
7985;SDS011;4038;42.612;23.066;2023-07-24T08:46:01;34.65;;;31.35;;
7985;SDS011;4038;42.612;23.066;2023-07-24T08:48:37;34.47;;;30.70;;
7985;SDS011;4038;42.612;23.066;2023-07-24T08:51:05;34.03;;;30.55;;
7985;SDS011;4038;42.612;23.066;2023-07-24T08:53:38;33.45;;;30.45;;
7985;SDS011;4038;42.612;23.066;2023-07-24T08:56:05;34.03;;;30.90;;
7985;SDS011;4038;42.612;23.066;2023-07-24T08:58:32;33.35;;;30.20;;
7985;SDS011;4038;42.612;23.066;2023-07-24T09:00:59;33.88;;;30.60;;
7985;SDS011;4038;42.612;23.066;2023-07-24T09:03:26;34.80;;;31.17;;
7985;SDS011;4038;42.612;23.066;2023-07-24T09:05:52;33.60;;;30.40;;
7985;SDS011;4038;42.612;23.066;2023-07-24T09:08:39;34.42;;;31.05;;
7985;SDS011;4038;42.612;23.066;2023-07-24T09:11:07;33.03;;;29.77;;
7985;SDS011;4038;42.612;23.066;2023-07-24T09:13:38;56.08;;;51.08;;
7985;SDS011;4038;42.612;23.066;2023-07-24T09:16:07;37.75;;;34.38;;
7985;SDS011;4038;42.612;23.066;2023-07-24T09:18:39;31.65;;;28.67;;
7985;SDS011;4038;42.612;23.066;2023-07-24T09:21:06;32.88;;;29.95;;
7985;SDS011;4038;42.612;23.066;2023-07-24T09:23:31;32.70;;;29.70;;
7985;SDS011;4038;42.612;23.066;2023-07-24T09:25:57;33.03;;;30.08;;
7985;SDS011;4038;42.612;23.066;2023-07-24T09:28:23;31.50;;;28.90;;
7985;SDS011;4038;42.612;23.066;2023-07-24T09:30:55;31.25;;;28.25;;
7985;SDS011;4038;42.612;23.066;2023-07-24T09:33:34;31.67;;;29.08;;
7985;SDS011;4038;42.612;23.066;2023-07-24T09:36:04;30.95;;;28.08;;
7985;SDS011;4038;42.612;23.066;2023-07-24T09:38:33;32.38;;;29.42;;
7985;SDS011;4038;42.612;23.066;2023-07-24T09:41:00;30.90;;;28.42;;
7985;SDS011;4038;42.612;23.066;2023-07-24T09:43:27;30.23;;;27.48;;
7985;SDS011;4038;42.612;23.066;2023-07-24T09:45:53;29.70;;;27.33;;
7985;SDS011;4038;42.612;23.066;2023-07-24T09:48:21;30.48;;;28.10;;
7985;SDS011;4038;42.612;23.066;2023-07-24T09:50:48;31.40;;;28.77;;
7985;SDS011;4038;42.612;23.066;2023-07-24T09:53:18;31.85;;;29.15;;
7985;SDS011;4038;42.612;23.066;2023-07-24T09:55:49;34.28;;;31.17;;
7985;SDS011;4038;42.612;23.066;2023-07-24T09:58:23;31.23;;;28.67;;
7985;SDS011;4038;42.612;23.066;2023-07-24T10:00:51;32.58;;;29.48;;
7985;SDS011;4038;42.612;23.066;2023-07-24T10:03:18;31.73;;;29.23;;
7985;SDS011;4038;42.612;23.066;2023-07-24T10:05:45;32.17;;;29.58;;
7985;SDS011;4038;42.612;23.066;2023-07-24T10:08:11;32.15;;;29.40;;
7985;SDS011;4038;42.612;23.066;2023-07-24T10:10:40;31.38;;;28.60;;
7985;SDS011;4038;42.612;23.066;2023-07-24T10:13:06;31.90;;;29.05;;
7985;SDS011;4038;42.612;23.066;2023-07-24T10:15:36;31.70;;;29.10;;
7985;SDS011;4038;42.612;23.066;2023-07-24T10:18:03;31.40;;;28.85;;
7985;SDS011;4038;42.612;23.066;2023-07-24T10:20:37;31.55;;;28.60;;
7985;SDS011;4038;42.612;23.066;2023-07-24T10:23:04;32.35;;;29.63;;
7985;SDS011;4038;42.612;23.066;2023-07-24T10:25:32;31.92;;;29.33;;
7985;SDS011;4038;42.612;23.066;2023-07-24T10:30:28;31.23;;;28.73;;
7985;SDS011;4038;42.612;23.066;2023-07-24T10:32:54;31.40;;;28.52;;
7985;SDS011;4038;42.612;23.066;2023-07-24T10:35:35;30.98;;;28.17;;
7985;SDS011;4038;42.612;23.066;2023-07-24T10:38:04;30.92;;;28.27;;
7985;SDS011;4038;42.612;23.066;2023-07-24T10:40:30;30.38;;;27.85;;
7985;SDS011;4038;42.612;23.066;2023-07-24T10:43:14;29.95;;;27.58;;
7985;SDS011;4038;42.612;23.066;2023-07-24T10:48:19;30.08;;;27.67;;
7985;SDS011;4038;42.612;23.066;2023-07-24T10:50:47;30.00;;;27.30;;
7985;SDS011;4038;42.612;23.066;2023-07-24T10:53:15;29.25;;;26.95;;
7985;SDS011;4038;42.612;23.066;2023-07-24T10:55:42;31.23;;;28.60;;
7985;SDS011;4038;42.612;23.066;2023-07-24T10:58:08;30.77;;;28.20;;
7985;SDS011;4038;42.612;23.066;2023-07-24T11:00:34;30.90;;;28.08;;
7985;SDS011;4038;42.612;23.066;2023-07-24T11:03:00;30.70;;;28.00;;
7985;SDS011;4038;42.612;23.066;2023-07-24T11:05:26;29.70;;;27.42;;
7985;SDS011;4038;42.612;23.066;2023-07-24T11:07:52;32.35;;;29.85;;
7985;SDS011;4038;42.612;23.066;2023-07-24T11:10:21;30.38;;;27.88;;
7985;SDS011;4038;42.612;23.066;2023-07-24T11:12:47;30.70;;;28.27;;
7985;SDS011;4038;42.612;23.066;2023-07-24T11:15:14;30.88;;;28.23;;
7985;SDS011;4038;42.612;23.066;2023-07-24T11:17:40;29.77;;;27.48;;
7985;SDS011;4038;42.612;23.066;2023-07-24T11:20:11;29.95;;;27.45;;
7985;SDS011;4038;42.612;23.066;2023-07-24T11:22:41;29.77;;;27.10;;
7985;SDS011;4038;42.612;23.066;2023-07-24T11:25:08;29.80;;;27.40;;
7985;SDS011;4038;42.612;23.066;2023-07-24T11:27:43;30.40;;;27.90;;
7985;SDS011;4038;42.612;23.066;2023-07-24T11:30:12;30.58;;;28.05;;
7985;SDS011;4038;42.612;23.066;2023-07-24T11:32:43;30.27;;;27.52;;
7985;SDS011;4038;42.612;23.066;2023-07-24T11:35:11;30.05;;;27.55;;
7985;SDS011;4038;42.612;23.066;2023-07-24T11:37:37;30.67;;;28.17;;
7985;SDS011;4038;42.612;23.066;2023-07-24T11:40:03;31.67;;;28.98;;
7985;SDS011;4038;42.612;23.066;2023-07-24T11:42:33;31.63;;;28.90;;
7985;SDS011;4038;42.612;23.066;2023-07-24T11:45:02;31.63;;;28.95;;
7985;SDS011;4038;42.612;23.066;2023-07-24T11:47:28;31.05;;;28.65;;
7985;SDS011;4038;42.612;23.066;2023-07-24T11:50:01;31.33;;;28.83;;
7985;SDS011;4038;42.612;23.066;2023-07-24T11:52:40;30.23;;;27.83;;
7985;SDS011;4038;42.612;23.066;2023-07-24T11:55:10;29.98;;;27.58;;
7985;SDS011;4038;42.612;23.066;2023-07-24T11:57:43;30.92;;;28.10;;
7985;SDS011;4038;42.612;23.066;2023-07-24T12:00:21;29.92;;;27.63;;
7985;SDS011;4038;42.612;23.066;2023-07-24T12:02:47;30.58;;;28.17;;
7985;SDS011;4038;42.612;23.066;2023-07-24T12:05:13;31.65;;;29.08;;
7985;SDS011;4038;42.612;23.066;2023-07-24T12:07:39;29.98;;;27.67;;
7985;SDS011;4038;42.612;23.066;2023-07-24T12:10:04;31.92;;;29.13;;
7985;SDS011;4038;42.612;23.066;2023-07-24T12:12:52;31.52;;;29.13;;
7985;SDS011;4038;42.612;23.066;2023-07-24T12:15:17;32.33;;;29.42;;
7985;SDS011;4038;42.612;23.066;2023-07-24T12:17:43;31.08;;;28.58;;
7985;SDS011;4038;42.612;23.066;2023-07-24T12:20:08;29.52;;;27.23;;
7985;SDS011;4038;42.612;23.066;2023-07-24T12:22:37;30.40;;;28.02;;
7985;SDS011;4038;42.612;23.066;2023-07-24T12:25:04;29.73;;;27.45;;
7985;SDS011;4038;42.612;23.066;2023-07-24T12:27:30;32.00;;;29.40;;
7985;SDS011;4038;42.612;23.066;2023-07-24T12:29:55;33.10;;;30.13;;
7985;SDS011;4038;42.612;23.066;2023-07-24T12:32:21;31.13;;;28.55;;
7985;SDS011;4038;42.612;23.066;2023-07-24T12:34:48;31.25;;;28.85;;
7985;SDS011;4038;42.612;23.066;2023-07-24T12:37:14;30.65;;;28.30;;
7985;SDS011;4038;42.612;23.066;2023-07-24T12:39:39;30.65;;;28.23;;
7985;SDS011;4038;42.612;23.066;2023-07-24T12:42:05;29.95;;;27.50;;
7985;SDS011;4038;42.612;23.066;2023-07-24T12:44:31;30.65;;;28.25;;
7985;SDS011;4038;42.612;23.066;2023-07-24T12:46:56;31.55;;;28.90;;
7985;SDS011;4038;42.612;23.066;2023-07-24T12:49:22;30.73;;;28.23;;
7985;SDS011;4038;42.612;23.066;2023-07-24T12:51:47;31.27;;;28.80;;
7985;SDS011;4038;42.612;23.066;2023-07-24T12:54:12;31.02;;;28.70;;
7985;SDS011;4038;42.612;23.066;2023-07-24T12:56:38;31.80;;;29.30;;
7985;SDS011;4038;42.612;23.066;2023-07-24T12:59:03;31.65;;;29.08;;
7985;SDS011;4038;42.612;23.066;2023-07-24T13:01:29;32.00;;;29.50;;
7985;SDS011;4038;42.612;23.066;2023-07-24T13:03:54;33.97;;;31.38;;
7985;SDS011;4038;42.612;23.066;2023-07-24T13:06:20;31.90;;;29.40;;
7985;SDS011;4038;42.612;23.066;2023-07-24T13:08:45;32.40;;;30.00;;
7985;SDS011;4038;42.612;23.066;2023-07-24T13:11:11;32.45;;;30.15;;
7985;SDS011;4038;42.612;23.066;2023-07-24T13:13:36;32.63;;;29.90;;
7985;SDS011;4038;42.612;23.066;2023-07-24T13:16:02;32.10;;;29.58;;
7985;SDS011;4038;42.612;23.066;2023-07-24T13:18:28;32.88;;;30.27;;
7985;SDS011;4038;42.612;23.066;2023-07-24T13:20:54;32.47;;;29.90;;
7985;SDS011;4038;42.612;23.066;2023-07-24T13:23:20;31.75;;;29.25;;
7985;SDS011;4038;42.612;23.066;2023-07-24T13:25:45;32.40;;;29.83;;
7985;SDS011;4038;42.612;23.066;2023-07-24T13:28:11;32.08;;;29.48;;
7985;SDS011;4038;42.612;23.066;2023-07-24T13:30:36;32.33;;;29.77;;
7985;SDS011;4038;42.612;23.066;2023-07-24T13:33:01;31.95;;;29.45;;
7985;SDS011;4038;42.612;23.066;2023-07-24T13:35:27;32.20;;;29.70;;
7985;SDS011;4038;42.612;23.066;2023-07-24T13:37:52;31.65;;;28.92;;
7985;SDS011;4038;42.612;23.066;2023-07-24T13:40:17;30.80;;;28.05;;
7985;SDS011;4038;42.612;23.066;2023-07-24T13:42:43;30.13;;;27.75;;
7985;SDS011;4038;42.612;23.066;2023-07-24T13:45:08;31.83;;;29.10;;
7985;SDS011;4038;42.612;23.066;2023-07-24T13:47:34;32.35;;;29.58;;
7985;SDS011;4038;42.612;23.066;2023-07-24T13:49:59;31.33;;;28.92;;
7985;SDS011;4038;42.612;23.066;2023-07-24T13:52:28;30.20;;;27.70;;
7985;SDS011;4038;42.612;23.066;2023-07-24T13:54:54;30.75;;;28.55;;
7985;SDS011;4038;42.612;23.066;2023-07-24T13:57:19;32.53;;;29.85;;
7985;SDS011;4038;42.612;23.066;2023-07-24T13:59:45;30.50;;;28.17;;
7985;SDS011;4038;42.612;23.066;2023-07-24T14:02:10;32.08;;;29.58;;
7985;SDS011;4038;42.612;23.066;2023-07-24T14:04:37;32.25;;;29.55;;
7985;SDS011;4038;42.612;23.066;2023-07-24T14:07:03;30.42;;;28.15;;
7985;SDS011;4038;42.612;23.066;2023-07-24T14:09:28;31.67;;;29.08;;
7985;SDS011;4038;42.612;23.066;2023-07-24T14:11:55;32.60;;;29.77;;
7985;SDS011;4038;42.612;23.066;2023-07-24T14:14:21;32.25;;;29.60;;
7985;SDS011;4038;42.612;23.066;2023-07-24T14:16:48;32.40;;;29.70;;
7985;SDS011;4038;42.612;23.066;2023-07-24T14:19:14;32.05;;;29.48;;
7985;SDS011;4038;42.612;23.066;2023-07-24T14:21:40;31.98;;;29.23;;
7985;SDS011;4038;42.612;23.066;2023-07-24T14:24:05;32.58;;;29.77;;
7985;SDS011;4038;42.612;23.066;2023-07-24T14:26:31;32.13;;;29.73;;
7985;SDS011;4038;42.612;23.066;2023-07-24T14:28:56;31.77;;;29.48;;
7985;SDS011;4038;42.612;23.066;2023-07-24T14:31:22;32.28;;;29.75;;
7985;SDS011;4038;42.612;23.066;2023-07-24T14:33:48;33.55;;;30.73;;
7985;SDS011;4038;42.612;23.066;2023-07-24T14:36:13;33.63;;;30.92;;
7985;SDS011;4038;42.612;23.066;2023-07-24T14:38:39;33.85;;;31.25;;